createdAt,value
2019-02-17T00:02:30.175Z,17.10
2019-02-17T00:05:03.941Z,17.63
2019-02-17T00:07:37.501Z,17.37
2019-02-17T00:10:11.170Z,17.43
2019-02-17T00:12:44.879Z,17.77
2019-02-17T00:15:19.655Z,19.47
2019-02-17T00:17:53.293Z,19.33
2019-02-17T00:20:27.048Z,19.03
2019-02-17T00:23:00.732Z,19.53
2019-02-17T00:25:34.394Z,18.30
2019-02-17T00:28:08.003Z,18.57
2019-02-17T00:30:41.675Z,17.60
2019-02-17T00:33:15.397Z,19.33
2019-02-17T00:35:49.041Z,18.67
2019-02-17T00:38:22.767Z,18.83
2019-02-17T00:40:56.367Z,18.50
2019-02-17T00:43:30.040Z,19.00
2019-02-17T00:46:03.749Z,19.17
2019-02-17T00:48:37.343Z,18.80
2019-02-17T00:51:15.025Z,19.83
2019-02-17T00:53:48.705Z,18.60
2019-02-17T00:56:22.359Z,19.97
2019-02-17T00:58:55.943Z,19.20
2019-02-17T01:01:29.851Z,19.60
2019-02-17T01:04:03.566Z,20.13
2019-02-17T01:06:37.168Z,19.77
2019-02-17T01:09:10.773Z,20.60
2019-02-17T01:11:44.500Z,20.33
2019-02-17T01:14:18.135Z,21.37
2019-02-17T01:16:51.726Z,20.67
2019-02-17T01:19:25.427Z,21.40
2019-02-17T01:21:59.053Z,20.10
2019-02-17T01:24:32.718Z,21.40
2019-02-17T01:27:06.322Z,21.97
2019-02-17T01:29:39.919Z,21.27
2019-02-17T01:32:13.611Z,21.70
2019-02-17T01:34:47.250Z,23.07
2019-02-17T01:37:20.824Z,22.57
2019-02-17T01:39:54.913Z,21.97
2019-02-17T01:42:28.495Z,20.57
2019-02-17T01:45:02.307Z,20.77
2019-02-17T01:47:35.975Z,21.80
2019-02-17T01:50:10.159Z,23.87
2019-02-17T01:52:43.970Z,23.20
2019-02-17T01:55:17.603Z,24.47
2019-02-17T01:57:51.617Z,23.10
2019-02-17T02:00:25.200Z,23.33
2019-02-17T02:02:58.827Z,21.87
2019-02-17T02:05:32.520Z,23.83
2019-02-17T02:08:06.219Z,23.00
2019-02-17T02:10:39.892Z,24.20
2019-02-17T02:13:13.668Z,23.47
2019-02-17T02:15:47.264Z,23.90
2019-02-17T02:18:20.875Z,23.30
2019-02-17T02:20:54.545Z,23.73
2019-02-17T02:23:28.149Z,24.03
2019-02-17T02:26:01.793Z,22.97
2019-02-17T02:28:35.581Z,24.23
2019-02-17T02:31:09.257Z,24.23
2019-02-17T02:33:42.863Z,24.93
2019-02-17T02:36:16.602Z,23.63
2019-02-17T02:38:50.317Z,22.50
2019-02-17T02:41:33.901Z,24.23
2019-02-17T02:43:59.217Z,22.63
2019-02-17T02:46:33.049Z,24.30
2019-02-17T02:49:06.649Z,23.60
2019-02-17T02:51:40.254Z,23.93
2019-02-17T02:54:13.888Z,23.90
2019-02-17T02:56:47.524Z,23.47
2019-02-17T02:59:22.463Z,24.50
2019-02-17T03:01:56.189Z,23.60
2019-02-17T03:04:29.893Z,24.13
2019-02-17T03:07:03.722Z,24.47
2019-02-17T03:09:37.307Z,24.03
2019-02-17T03:12:11.318Z,23.23
2019-02-17T03:14:45.012Z,24.57
2019-02-17T03:17:18.660Z,22.70
2019-02-17T03:19:52.238Z,23.37
2019-02-17T03:22:25.900Z,23.53
2019-02-17T03:24:59.558Z,24.63
2019-02-17T03:27:33.179Z,23.67
2019-02-17T03:30:10.983Z,23.33
2019-02-17T03:32:44.737Z,24.50
2019-02-17T03:35:18.323Z,25.07
2019-02-17T03:37:51.916Z,23.80
2019-02-17T03:40:25.642Z,24.43
2019-02-17T03:42:59.339Z,24.27
2019-02-17T03:45:35.038Z,24.30
2019-02-17T03:48:08.690Z,24.40
2019-02-17T03:50:42.350Z,25.57
2019-02-17T03:53:16.001Z,24.87
2019-02-17T03:55:49.628Z,25.10
2019-02-17T03:58:23.215Z,24.57
2019-02-17T04:00:56.862Z,25.27
2019-02-17T04:03:30.465Z,25.13
2019-02-17T04:06:04.239Z,24.00
2019-02-17T04:08:37.939Z,26.30
2019-02-17T04:11:11.610Z,24.53
2019-02-17T04:13:45.377Z,23.93
2019-02-17T04:16:19.024Z,26.07
2019-02-17T04:18:52.756Z,26.13
2019-02-17T04:21:26.405Z,24.23
2019-02-17T04:24:00.118Z,24.43
2019-02-17T04:26:33.909Z,24.27
2019-02-17T04:29:10.162Z,24.83
2019-02-17T04:31:42.896Z,23.20
2019-02-17T04:34:16.481Z,25.60
2019-02-17T04:36:50.202Z,25.10
2019-02-17T04:39:23.780Z,26.83
2019-02-17T04:41:57.422Z,24.57
2019-02-17T04:44:31.077Z,26.77
2019-02-17T04:47:04.860Z,25.43
2019-02-17T04:49:38.450Z,25.77
2019-02-17T04:52:12.095Z,26.93
2019-02-17T04:54:45.740Z,25.97
2019-02-17T04:57:19.362Z,26.17
2019-02-17T04:59:53.218Z,25.83
2019-02-17T05:02:26.977Z,25.37
2019-02-17T05:05:00.595Z,24.77
2019-02-17T05:07:34.345Z,26.10
2019-02-17T05:10:08.379Z,24.27
2019-02-17T05:12:42.025Z,24.23
2019-02-17T05:15:15.620Z,26.33
2019-02-17T05:17:49.419Z,25.90
2019-02-17T05:20:23.039Z,26.03
2019-02-17T05:22:56.776Z,27.47
2019-02-17T05:25:30.409Z,26.40
2019-02-17T05:28:04.002Z,25.77
2019-02-17T05:30:37.701Z,27.50
2019-02-17T05:33:11.319Z,25.83
2019-02-17T05:35:46.730Z,26.20
2019-02-17T05:38:20.464Z,25.30
2019-02-17T05:40:55.769Z,25.13
2019-02-17T05:43:29.405Z,28.00
2019-02-17T05:46:03.188Z,24.83
2019-02-17T05:48:36.791Z,23.67
2019-02-17T05:51:10.721Z,26.10
2019-02-17T05:53:44.300Z,23.20
2019-02-17T05:56:17.900Z,23.47
2019-02-17T05:58:51.535Z,22.77
2019-02-17T06:01:25.547Z,22.97
2019-02-17T06:03:59.183Z,21.83
2019-02-17T06:06:32.854Z,21.30
2019-02-17T06:09:06.518Z,21.67
2019-02-17T06:11:41.043Z,21.87
2019-02-17T06:14:14.654Z,21.73
2019-02-17T06:16:48.285Z,20.73
2019-02-17T06:19:22.050Z,21.73
2019-02-17T06:21:55.856Z,20.23
2019-02-17T06:24:29.693Z,20.43
2019-02-17T06:27:03.295Z,21.13
2019-02-17T06:29:36.994Z,21.77
2019-02-17T06:32:10.662Z,21.20
2019-02-17T06:34:44.339Z,21.80
2019-02-17T06:37:17.942Z,20.00
2019-02-17T06:39:53.116Z,21.17
2019-02-17T06:42:26.696Z,20.87
2019-02-17T06:45:00.366Z,20.77
2019-02-17T06:47:34.896Z,20.77
2019-02-17T06:50:10.270Z,20.20
2019-02-17T06:52:43.920Z,19.67
2019-02-17T06:55:31.108Z,21.57
2019-02-17T06:58:04.849Z,19.20
2019-02-17T07:00:40.176Z,19.67
2019-02-17T07:03:14.431Z,19.37
2019-02-17T07:05:49.862Z,20.17
2019-02-17T07:08:23.513Z,19.60
2019-02-17T07:10:57.210Z,21.90
2019-02-17T07:13:30.820Z,22.77
2019-02-17T07:16:04.501Z,24.40
2019-02-17T07:18:38.170Z,24.57
2019-02-17T07:21:11.907Z,21.97
2019-02-17T07:23:45.570Z,23.47
2019-02-17T07:26:19.245Z,22.97
2019-02-17T07:28:52.902Z,25.33
2019-02-17T07:31:34.707Z,23.97
2019-02-17T07:34:02.575Z,23.10
2019-02-17T07:36:36.332Z,23.07
2019-02-17T07:39:10.054Z,22.23
2019-02-17T07:41:43.746Z,22.93
2019-02-17T07:44:17.453Z,22.30
2019-02-17T07:46:51.041Z,22.57
2019-02-17T07:49:24.669Z,22.57
2019-02-17T07:51:58.335Z,22.30
2019-02-17T07:54:32.036Z,23.80
2019-02-17T07:57:06.234Z,22.03
2019-02-17T07:59:40.114Z,23.00
2019-02-17T08:02:13.724Z,24.00
2019-02-17T08:04:47.343Z,23.07
2019-02-17T08:07:20.921Z,24.47
2019-02-17T08:09:54.568Z,24.53
2019-02-17T08:12:28.179Z,23.60
2019-02-17T08:15:02.020Z,22.07
2019-02-17T08:17:35.599Z,22.77
2019-02-17T08:20:10.644Z,23.23
2019-02-17T08:22:44.313Z,22.00
2019-02-17T08:25:21.874Z,21.93
2019-02-17T08:27:54.065Z,23.97
2019-02-17T08:30:27.710Z,23.83
2019-02-17T08:33:01.362Z,22.43
2019-02-17T08:35:35.000Z,24.10
2019-02-17T08:38:08.585Z,22.80
2019-02-17T08:40:42.191Z,23.77
2019-02-17T08:43:15.819Z,22.27
2019-02-17T08:45:49.469Z,22.93
2019-02-17T08:48:23.131Z,23.20
2019-02-17T08:50:58.070Z,23.43
2019-02-17T08:53:32.725Z,23.43
2019-02-17T08:56:07.002Z,23.47
2019-02-17T08:58:40.559Z,24.07
2019-02-17T09:01:15.265Z,21.27
2019-02-17T09:03:49.427Z,22.97
2019-02-17T09:06:23.205Z,21.83
2019-02-17T09:08:56.920Z,22.47
2019-02-17T09:11:30.657Z,21.63
2019-02-17T09:14:04.346Z,21.60
2019-02-17T09:16:38.011Z,23.50
2019-02-17T09:19:11.601Z,23.07
2019-02-17T09:21:45.316Z,21.73
2019-02-17T09:24:18.981Z,23.67
2019-02-17T09:26:52.704Z,23.50
2019-02-17T09:29:26.741Z,22.53
2019-02-17T09:32:01.849Z,23.20
2019-02-17T09:34:37.583Z,21.77
2019-02-17T09:37:11.317Z,22.43
2019-02-17T09:39:44.903Z,21.93
2019-02-17T09:42:18.557Z,20.40
2019-02-17T09:44:52.277Z,21.27
2019-02-17T09:47:25.970Z,22.17
2019-02-17T09:49:59.529Z,21.60
2019-02-17T09:52:33.150Z,21.10
2019-02-17T09:55:08.361Z,20.13
2019-02-17T09:57:41.975Z,19.40
2019-02-17T10:00:16.527Z,19.37
2019-02-17T10:02:50.169Z,19.27
2019-02-17T10:05:23.747Z,18.40
2019-02-17T10:07:57.375Z,20.10
2019-02-17T10:10:31.052Z,20.23
2019-02-17T10:13:04.742Z,20.33
2019-02-17T10:15:38.520Z,21.67
2019-02-17T10:18:12.197Z,20.83
2019-02-17T10:20:45.821Z,21.17
2019-02-17T10:23:19.899Z,19.67
2019-02-17T10:25:53.557Z,20.77
2019-02-17T10:28:27.259Z,17.60
2019-02-17T10:31:01.063Z,15.97
2019-02-17T10:33:34.679Z,15.90
2019-02-17T10:36:09.141Z,17.20
2019-02-17T10:38:42.791Z,17.53
2019-02-17T10:41:16.433Z,16.17
2019-02-17T10:43:50.077Z,16.73
2019-02-17T10:46:24.260Z,14.43
2019-02-17T10:48:57.993Z,15.00
2019-02-17T10:51:31.700Z,14.63
2019-02-17T10:54:05.393Z,14.60
2019-02-17T10:56:39.139Z,14.67
2019-02-17T10:59:12.758Z,16.80
2019-02-17T11:01:46.365Z,16.47
2019-02-17T11:04:19.993Z,14.83
2019-02-17T11:06:53.673Z,14.00
2019-02-17T11:09:27.377Z,14.33
2019-02-17T11:12:01.039Z,14.53
2019-02-17T11:14:34.786Z,15.77
2019-02-17T11:17:08.327Z,14.83
2019-02-17T11:19:41.957Z,15.47
2019-02-17T11:22:22.918Z,15.97
2019-02-17T11:24:50.894Z,14.77
2019-02-17T11:27:24.555Z,14.37
2019-02-17T11:29:59.321Z,13.40
2019-02-17T11:32:33.161Z,13.90
2019-02-17T11:35:07.397Z,14.70
2019-02-17T11:37:41.032Z,12.20
2019-02-17T11:40:15.816Z,11.53
2019-02-17T11:42:49.569Z,14.20
2019-02-17T11:45:23.327Z,11.30
2019-02-17T11:47:56.917Z,11.57
2019-02-17T11:50:30.771Z,10.40
2019-02-17T11:53:04.393Z,11.83
2019-02-17T11:55:38.757Z,11.83
2019-02-17T11:58:12.393Z,10.33
2019-02-17T12:00:46.099Z,10.10
2019-02-17T12:03:19.789Z,9.47
2019-02-17T12:05:53.438Z,9.63
2019-02-17T12:08:27.097Z,9.93
2019-02-17T12:11:00.679Z,9.70
2019-02-17T12:13:34.319Z,10.27
2019-02-17T12:16:07.899Z,7.27
2019-02-17T12:18:41.721Z,5.60
2019-02-17T12:21:17.030Z,5.97
2019-02-17T12:24:08.504Z,6.23
2019-02-17T12:26:52.919Z,6.47
2019-02-17T12:29:28.301Z,5.60
2019-02-17T12:32:02.108Z,6.90
2019-02-17T12:34:35.734Z,7.10
2019-02-17T12:37:09.511Z,4.97
2019-02-17T12:39:43.187Z,5.73
2019-02-17T12:42:16.896Z,7.07
2019-02-17T12:44:50.537Z,7.27
2019-02-17T12:47:24.191Z,7.47
2019-02-17T12:49:57.779Z,9.00
2019-02-17T12:52:31.585Z,7.83
2019-02-17T12:55:06.508Z,8.40
2019-02-17T12:57:40.306Z,8.27
2019-02-17T13:00:16.789Z,8.13
2019-02-17T13:02:50.442Z,8.63
2019-02-17T13:05:24.108Z,10.13
2019-02-17T13:07:57.801Z,10.03
2019-02-17T13:10:31.478Z,10.73
2019-02-17T13:13:05.235Z,12.87
2019-02-17T13:15:39.001Z,14.43
2019-02-17T13:18:12.706Z,12.27
2019-02-17T13:20:46.245Z,10.83
2019-02-17T13:23:19.920Z,10.83
2019-02-17T13:25:53.583Z,8.60
2019-02-17T13:28:27.269Z,8.40
2019-02-17T13:31:00.931Z,8.73
2019-02-17T13:33:39.301Z,8.17
2019-02-17T13:36:09.870Z,8.27
2019-02-17T13:38:43.601Z,9.33
2019-02-17T13:41:17.265Z,9.67
2019-02-17T13:43:50.900Z,9.30
2019-02-17T13:46:24.688Z,9.83
2019-02-17T13:48:58.316Z,10.03
2019-02-17T13:51:31.982Z,8.83
2019-02-17T13:54:07.159Z,11.60
2019-02-17T13:56:40.870Z,10.97
2019-02-17T13:59:14.510Z,10.10
2019-02-17T14:01:48.203Z,11.50
2019-02-17T14:04:21.807Z,11.13
2019-02-17T14:06:55.464Z,11.00
2019-02-17T14:09:29.141Z,11.63
2019-02-17T14:12:02.778Z,12.60
2019-02-17T14:14:38.737Z,12.87
2019-02-17T14:17:11.870Z,13.33
2019-02-17T14:19:45.460Z,11.50
2019-02-17T14:22:19.090Z,10.43
2019-02-17T14:24:52.732Z,10.77
2019-02-17T14:27:26.342Z,10.70
2019-02-17T14:30:00.040Z,10.17
2019-02-17T14:32:33.814Z,8.43
2019-02-17T14:35:07.491Z,9.20
2019-02-17T14:37:41.160Z,9.03
2019-02-17T14:40:15.065Z,9.27
2019-02-17T14:42:48.852Z,9.53
2019-02-17T14:45:22.598Z,9.67
2019-02-17T14:47:56.764Z,9.80
2019-02-17T14:50:30.390Z,7.90
2019-02-17T14:53:04.095Z,8.17
2019-02-17T14:55:38.060Z,7.43
2019-02-17T14:58:11.700Z,7.43
2019-02-17T15:00:45.286Z,7.27
2019-02-17T15:03:18.988Z,7.20
2019-02-17T15:05:53.748Z,7.60
2019-02-17T15:08:27.474Z,7.07
2019-02-17T15:11:01.078Z,7.23
2019-02-17T15:13:34.700Z,6.93
2019-02-17T15:16:08.412Z,7.17
2019-02-17T15:18:42.066Z,8.37
2019-02-17T15:21:15.704Z,8.47
2019-02-17T15:23:49.302Z,8.37
2019-02-17T15:26:22.956Z,8.97
2019-02-17T15:28:56.536Z,9.47
2019-02-17T15:31:31.146Z,9.70
2019-02-17T15:34:04.762Z,10.70
2019-02-17T15:36:38.448Z,10.90
2019-02-17T15:39:12.116Z,13.33
2019-02-17T15:41:45.812Z,13.93
2019-02-17T15:44:19.362Z,15.73
2019-02-17T15:46:53.074Z,18.17
2019-02-17T15:49:26.664Z,18.73
2019-02-17T15:52:00.322Z,16.57
2019-02-17T15:54:34.109Z,21.10
2019-02-17T15:57:07.768Z,23.40
2019-02-17T15:59:41.630Z,21.57
2019-02-17T16:02:15.320Z,24.43
2019-02-17T16:04:48.985Z,25.70
2019-02-17T16:07:22.732Z,28.83
2019-02-17T16:09:56.317Z,30.87
2019-02-17T16:12:30.034Z,30.73
2019-02-17T16:15:04.659Z,30.43
2019-02-17T16:17:38.394Z,28.77
2019-02-17T16:20:13.817Z,30.17
2019-02-17T16:22:49.152Z,31.67
2019-02-17T16:25:22.832Z,31.03
2019-02-17T16:27:57.149Z,31.90
2019-02-17T16:30:31.097Z,31.37
2019-02-17T16:33:04.709Z,30.67
2019-02-17T16:35:38.446Z,33.23
2019-02-17T16:38:12.218Z,33.13
2019-02-17T16:40:45.858Z,31.27
2019-02-17T16:43:19.522Z,32.47
2019-02-17T16:45:53.228Z,30.33
2019-02-17T16:48:26.887Z,30.10
2019-02-17T16:51:01.057Z,28.87
2019-02-17T16:53:34.931Z,31.73
2019-02-17T16:56:08.710Z,30.43
2019-02-17T16:58:42.435Z,27.73
2019-02-17T17:01:16.145Z,29.30
2019-02-17T17:03:49.843Z,29.87
2019-02-17T17:06:23.578Z,28.23
2019-02-17T17:08:57.313Z,28.53
2019-02-17T17:11:30.969Z,25.53
2019-02-17T17:14:08.975Z,23.67
2019-02-17T17:16:39.900Z,22.97
2019-02-17T17:19:13.630Z,24.57
2019-02-17T17:21:47.314Z,23.67
2019-02-17T17:24:20.990Z,23.37
2019-02-17T17:26:54.712Z,23.47
2019-02-17T17:29:28.325Z,23.87
2019-02-17T17:32:02.142Z,23.87
2019-02-17T17:34:36.099Z,23.70
2019-02-17T17:37:09.809Z,22.63
2019-02-17T17:39:43.491Z,24.60
2019-02-17T17:42:17.152Z,25.57
2019-02-17T17:44:50.827Z,27.43
2019-02-17T17:47:24.423Z,26.87
2019-02-17T17:49:58.088Z,28.03
2019-02-17T17:52:31.789Z,27.33
2019-02-17T17:55:07.935Z,27.33
2019-02-17T17:57:41.533Z,29.43
2019-02-17T18:00:23.935Z,27.87
2019-02-17T18:02:58.046Z,28.97
2019-02-17T18:05:31.739Z,27.87
2019-02-17T18:08:05.775Z,27.77
2019-02-17T18:10:39.881Z,26.27
2019-02-17T18:13:15.533Z,27.07
2019-02-17T18:15:50.533Z,27.50
2019-02-17T18:18:25.815Z,28.23
2019-02-17T18:21:00.616Z,26.90
2019-02-17T18:23:34.451Z,27.63
2019-02-17T18:26:08.089Z,28.70
2019-02-17T18:28:41.775Z,28.97
2019-02-17T18:31:15.483Z,30.93
2019-02-17T18:33:49.157Z,28.33
2019-02-17T18:36:22.858Z,28.63
2019-02-17T18:38:56.503Z,28.13
2019-02-17T18:41:30.167Z,27.27
2019-02-17T18:44:04.007Z,28.03
2019-02-17T18:46:37.677Z,27.23
2019-02-17T18:49:11.339Z,25.90
2019-02-17T18:51:45.245Z,27.40
2019-02-17T18:54:18.937Z,24.93
2019-02-17T18:56:52.573Z,28.73
2019-02-17T18:59:26.171Z,25.93
2019-02-17T19:01:59.891Z,27.47
2019-02-17T19:04:33.580Z,27.57
2019-02-17T19:07:07.267Z,26.57
2019-02-17T19:09:40.900Z,29.27
2019-02-17T19:12:14.892Z,28.40
2019-02-17T19:14:48.563Z,30.27
2019-02-17T19:17:22.235Z,29.90
2019-02-17T19:19:55.907Z,28.07
2019-02-17T19:22:29.643Z,30.40
2019-02-17T19:25:03.555Z,30.80
2019-02-17T19:27:37.259Z,29.43
2019-02-17T19:30:13.778Z,29.10
2019-02-17T19:32:48.254Z,29.67
2019-02-17T19:35:22.001Z,29.57
2019-02-17T19:37:55.861Z,29.07
2019-02-17T19:40:29.461Z,29.97
2019-02-17T19:43:03.612Z,31.37
2019-02-17T19:45:37.339Z,33.70
2019-02-17T19:48:11.029Z,34.70
2019-02-17T19:50:44.651Z,34.20
2019-02-17T19:53:18.631Z,35.20
2019-02-17T19:55:52.229Z,35.60
2019-02-17T19:58:25.925Z,33.07
2019-02-17T20:00:59.591Z,36.17
2019-02-17T20:03:37.563Z,34.80
2019-02-17T20:06:12.932Z,33.83
2019-02-17T20:08:46.957Z,32.43
2019-02-17T20:11:20.662Z,34.40
2019-02-17T20:13:54.362Z,33.20
2019-02-17T20:16:28.035Z,31.77
2019-02-17T20:19:01.628Z,32.10
2019-02-17T20:21:35.395Z,32.87
2019-02-17T20:24:09.278Z,33.67
2019-02-17T20:26:42.933Z,32.83
2019-02-17T20:29:16.718Z,31.90
2019-02-17T20:31:50.413Z,33.47
2019-02-17T20:34:24.143Z,30.97
2019-02-17T20:36:57.750Z,31.43
2019-02-17T20:39:31.405Z,31.97
2019-02-17T20:42:05.138Z,32.43
2019-02-17T20:44:38.934Z,32.13
2019-02-17T20:47:12.663Z,32.27
2019-02-17T20:49:46.302Z,32.97
2019-02-17T20:52:19.904Z,35.37
2019-02-17T20:54:53.547Z,35.23
2019-02-17T20:57:27.150Z,35.00
2019-02-17T21:00:00.953Z,35.47
2019-02-17T21:02:34.636Z,34.07
2019-02-17T21:05:10.007Z,33.83
2019-02-17T21:07:43.830Z,33.97
2019-02-17T21:10:17.545Z,34.43
2019-02-17T21:12:51.325Z,35.10
2019-02-17T21:15:25.227Z,34.17
2019-02-17T21:17:58.955Z,33.07
2019-02-17T21:20:33.062Z,34.90
2019-02-17T21:23:09.059Z,35.23
2019-02-17T21:25:42.765Z,37.97
2019-02-17T21:28:16.425Z,35.63
2019-02-17T21:30:50.683Z,40.40
2019-02-17T21:33:24.416Z,38.60
2019-02-17T21:35:58.033Z,38.63
2019-02-17T21:38:31.713Z,37.50
2019-02-17T21:41:09.337Z,35.93
2019-02-17T21:43:40.799Z,34.70
2019-02-17T21:46:14.577Z,30.83
2019-02-17T21:48:48.538Z,30.53
2019-02-17T21:51:22.399Z,30.03
2019-02-17T21:53:56.101Z,30.53
2019-02-17T21:56:29.741Z,29.30
2019-02-17T21:59:03.460Z,30.70
2019-02-17T22:01:37.243Z,29.53
2019-02-17T22:04:10.889Z,31.70
2019-02-17T22:06:46.139Z,30.03
2019-02-17T22:09:19.723Z,29.00
2019-02-17T22:11:53.393Z,29.43
2019-02-17T22:14:26.994Z,29.93
2019-02-17T22:17:00.695Z,29.93
2019-02-17T22:19:34.294Z,29.13
2019-02-17T22:22:08.008Z,28.90
2019-02-17T22:24:41.603Z,28.10
2019-02-17T22:27:15.465Z,27.83
2019-02-17T22:29:49.044Z,27.87
2019-02-17T22:32:22.785Z,27.20
2019-02-17T22:34:56.477Z,25.77
2019-02-17T22:37:30.193Z,25.27
2019-02-17T22:40:06.249Z,24.50
2019-02-17T22:42:39.953Z,25.47
2019-02-17T22:45:13.895Z,26.60
2019-02-17T22:47:47.689Z,26.23
2019-02-17T22:50:21.444Z,26.90
2019-02-17T22:52:56.437Z,25.73
2019-02-17T22:55:30.192Z,24.83
2019-02-17T22:58:03.852Z,25.00
2019-02-17T23:00:40.773Z,23.43
2019-02-17T23:03:14.496Z,25.33
2019-02-17T23:05:48.168Z,22.67
2019-02-17T23:08:21.904Z,25.27
2019-02-17T23:10:55.563Z,27.93
2019-02-17T23:13:29.177Z,25.10
2019-02-17T23:16:02.857Z,24.80
2019-02-17T23:18:36.517Z,27.07
2019-02-17T23:21:10.236Z,25.10
2019-02-17T23:23:43.797Z,28.17
2019-02-17T23:26:17.523Z,28.87
2019-02-17T23:28:51.199Z,28.13
2019-02-17T23:31:24.836Z,27.47
2019-02-17T23:33:59.544Z,28.37
2019-02-17T23:36:33.287Z,29.27
2019-02-17T23:39:07.283Z,26.93
2019-02-17T23:41:40.946Z,30.20
2019-02-17T23:44:14.609Z,31.43
2019-02-17T23:46:48.313Z,29.97
2019-02-17T23:49:21.988Z,29.20
2019-02-17T23:51:55.691Z,31.30
2019-02-17T23:54:29.376Z,30.67
2019-02-17T23:57:03.133Z,31.20
2019-02-17T23:59:36.801Z,30.37
